createdAt,value
2023-03-03T00:01:44.637Z,-0.53
2023-03-03T00:04:11.240Z,-0.51
2023-03-03T00:06:37.662Z,-0.48
2023-03-03T00:09:04.095Z,-0.60
2023-03-03T00:11:30.528Z,-0.55
2023-03-03T00:13:57.035Z,-0.56
2023-03-03T00:16:34.402Z,-0.61
2023-03-03T00:19:01.394Z,-0.64
2023-03-03T00:21:42.256Z,-0.52
2023-03-03T00:24:18.045Z,-0.72
2023-03-03T00:26:56.139Z,-0.71
2023-03-03T00:29:36.911Z,-0.80
2023-03-03T00:32:18.027Z,-0.70
2023-03-03T00:34:44.991Z,-0.79
2023-03-03T00:37:27.711Z,-0.80
2023-03-03T00:40:02.916Z,-0.84
2023-03-03T00:42:29.381Z,-0.79
2023-03-03T00:45:00.620Z,-0.72
2023-03-03T00:47:31.856Z,-0.67
2023-03-03T00:50:07.738Z,-0.64
2023-03-03T00:52:40.099Z,-0.72
2023-03-03T00:55:08.055Z,-0.68
2023-03-03T00:57:34.800Z,-0.79
2023-03-03T01:00:01.551Z,-0.83
2023-03-03T01:02:31.004Z,-0.87
2023-03-03T01:04:57.514Z,-0.87
2023-03-03T01:07:24.144Z,-0.84
2023-03-03T01:09:50.549Z,-0.80
2023-03-03T01:12:17.067Z,-0.78
2023-03-03T01:14:45.442Z,-0.81
2023-03-03T01:17:12.771Z,-0.82
2023-03-03T01:19:39.362Z,-0.80
2023-03-03T01:22:06.253Z,-0.83
2023-03-03T01:24:33.426Z,-0.74
2023-03-03T01:27:00.448Z,-0.72
2023-03-03T01:29:26.973Z,-0.80
2023-03-03T01:31:53.847Z,-0.75
2023-03-03T01:34:21.724Z,-0.78
2023-03-03T01:36:48.189Z,-0.79
2023-03-03T01:39:14.934Z,-0.81
2023-03-03T01:41:41.556Z,-0.71
2023-03-03T01:44:14.156Z,-0.85
2023-03-03T01:47:11.373Z,-0.84
2023-03-03T01:49:42.025Z,-0.81
2023-03-03T01:52:21.905Z,-0.81
2023-03-03T01:54:54.066Z,-0.88
2023-03-03T01:57:28.774Z,-0.87
2023-03-03T01:59:57.344Z,-0.89
2023-03-03T02:02:27.567Z,-0.88
2023-03-03T02:04:54.212Z,-0.93
2023-03-03T02:07:22.875Z,-0.91
2023-03-03T02:10:10.855Z,-0.78
2023-03-03T02:12:45.409Z,-0.82
2023-03-03T02:15:16.772Z,-0.74
2023-03-03T02:17:44.054Z,-0.75
2023-03-03T02:20:29.098Z,-0.84
2023-03-03T02:23:07.757Z,-0.76
2023-03-03T02:25:42.723Z,-0.87
2023-03-03T02:28:09.900Z,-0.87
2023-03-03T02:30:39.997Z,-0.84
2023-03-03T02:33:08.170Z,-0.79
2023-03-03T02:35:38.623Z,-0.84
2023-03-03T02:38:34.867Z,-0.68
2023-03-03T02:41:16.580Z,-0.76
2023-03-03T02:43:53.128Z,-0.68
2023-03-03T02:46:19.996Z,-0.72
2023-03-03T02:48:46.665Z,-0.71
2023-03-03T02:51:13.481Z,-0.79
2023-03-03T02:53:40.808Z,-0.70
2023-03-03T02:56:09.415Z,-0.75
2023-03-03T02:58:37.047Z,-0.77
2023-03-03T03:01:04.890Z,-0.77
2023-03-03T03:03:31.945Z,-0.72
2023-03-03T03:06:03.337Z,-0.69
2023-03-03T03:08:29.873Z,-0.64
2023-03-03T03:10:57.385Z,-0.65
2023-03-03T03:13:26.315Z,-0.64
2023-03-03T03:15:53.324Z,-0.71
2023-03-03T03:18:19.866Z,-0.73
2023-03-03T03:20:48.466Z,-0.71
2023-03-03T03:23:16.894Z,-0.66
2023-03-03T03:25:46.597Z,-0.69
2023-03-03T03:28:19.335Z,-0.69
2023-03-03T03:30:46.386Z,-0.67
2023-03-03T03:33:13.248Z,-0.67
2023-03-03T03:35:45.452Z,-0.44
2023-03-03T03:38:14.184Z,-0.58
2023-03-03T03:40:41.874Z,-0.60
2023-03-03T03:43:09.617Z,-0.60
2023-03-03T03:45:36.165Z,-0.52
2023-03-03T03:48:03.894Z,-0.56
2023-03-03T03:50:32.085Z,-0.57
2023-03-03T03:52:58.554Z,-0.59
2023-03-03T03:55:25.069Z,-0.45
2023-03-03T03:57:52.254Z,-0.43
2023-03-03T04:00:20.247Z,-0.43
2023-03-03T04:02:53.625Z,-0.62
2023-03-03T04:05:21.174Z,-0.64
2023-03-03T04:07:47.751Z,-0.58
2023-03-03T04:10:17.984Z,-0.66
2023-03-03T04:12:45.329Z,-0.66
2023-03-03T04:15:15.183Z,-0.62
2023-03-03T04:17:42.922Z,-0.58
2023-03-03T04:20:12.801Z,-0.52
2023-03-03T04:22:39.233Z,-0.52
2023-03-03T04:25:06.465Z,-0.59
2023-03-03T04:27:38.325Z,-0.45
2023-03-03T04:30:06.456Z,-0.39
2023-03-03T04:32:33.984Z,-0.48
2023-03-03T04:35:08.213Z,-0.56
2023-03-03T04:37:38.969Z,-0.54
2023-03-03T04:40:07.910Z,-0.61
2023-03-03T04:42:35.166Z,-0.56
2023-03-03T04:45:03.368Z,-0.48
2023-03-03T04:47:32.280Z,-0.52
2023-03-03T04:49:58.901Z,-0.53
2023-03-03T04:52:25.531Z,-0.47
2023-03-03T04:54:52.065Z,-0.48
2023-03-03T04:57:18.488Z,-0.48
2023-03-03T04:59:45.123Z,-0.44
2023-03-03T05:02:13.166Z,-0.45
2023-03-03T05:04:39.611Z,-0.30
2023-03-03T05:07:06.284Z,-0.43
2023-03-03T05:09:32.803Z,-0.46
2023-03-03T05:11:59.535Z,-0.42
2023-03-03T05:14:27.031Z,-0.44
2023-03-03T05:16:54.317Z,-0.45
2023-03-03T05:19:20.710Z,-0.40
2023-03-03T05:21:47.136Z,-0.35
2023-03-03T05:24:14.156Z,-0.40
2023-03-03T05:26:41.164Z,-0.37
2023-03-03T05:29:08.741Z,-0.29
2023-03-03T05:31:35.571Z,-0.29
2023-03-03T05:34:02.116Z,-0.34
2023-03-03T05:36:28.599Z,-0.38
2023-03-03T05:38:54.976Z,-0.31
2023-03-03T05:41:21.799Z,-0.38
2023-03-03T05:43:48.361Z,-0.32
2023-03-03T05:46:15.085Z,-0.45
2023-03-03T05:48:41.945Z,-0.44
2023-03-03T05:51:08.773Z,-0.39
2023-03-03T05:53:35.322Z,-0.40
2023-03-03T05:56:04.251Z,-0.29
2023-03-03T05:58:30.857Z,-0.31
2023-03-03T06:00:57.540Z,-0.34
2023-03-03T06:03:24.266Z,-0.31
2023-03-03T06:05:50.682Z,-0.36
2023-03-03T06:08:17.090Z,-0.29
2023-03-03T06:10:43.647Z,-0.32
2023-03-03T06:13:12.829Z,-0.30
2023-03-03T06:15:39.312Z,-0.34
2023-03-03T06:18:05.753Z,-0.33
2023-03-03T06:20:33.087Z,-0.30
2023-03-03T06:22:59.737Z,-0.31
2023-03-03T06:25:26.155Z,-0.34
2023-03-03T06:27:52.596Z,-0.31
2023-03-03T06:30:19.383Z,-0.31
2023-03-03T06:32:46.033Z,-0.39
2023-03-03T06:35:13.039Z,-0.40
2023-03-03T06:37:39.810Z,-0.43
2023-03-03T06:40:07.412Z,-0.41
2023-03-03T06:42:33.941Z,-0.35
2023-03-03T06:45:00.622Z,-0.38
2023-03-03T06:47:27.929Z,-0.34
2023-03-03T06:49:54.396Z,-0.33
2023-03-03T06:52:26.453Z,-0.32
2023-03-03T06:54:58.883Z,-0.32
2023-03-03T06:57:33.392Z,-0.33
2023-03-03T07:00:28.483Z,-0.33
2023-03-03T07:03:02.543Z,-0.32
2023-03-03T07:05:29.616Z,-0.26
2023-03-03T07:07:57.237Z,-0.27
2023-03-03T07:10:30.937Z,-0.22
2023-03-03T07:13:06.857Z,-0.22
2023-03-03T07:15:35.807Z,-0.21
2023-03-03T07:18:04.510Z,-0.17
2023-03-03T07:20:38.775Z,-0.13
2023-03-03T07:23:42.457Z,-0.05
2023-03-03T07:26:18.821Z,-0.07
2023-03-03T07:28:54.130Z,-0.05
2023-03-03T07:31:39.179Z,-0.11
2023-03-03T07:34:24.185Z,-0.08
2023-03-03T07:36:54.758Z,-0.08
2023-03-03T07:39:40.506Z,-0.08
2023-03-03T07:42:27.645Z,-0.11
2023-03-03T07:45:04.206Z,-0.03
2023-03-03T07:47:35.689Z,0.04
2023-03-03T07:50:15.568Z,-0.05
2023-03-03T07:52:48.708Z,0.03
2023-03-03T07:55:35.505Z,0.04
2023-03-03T07:58:10.902Z,0.09
2023-03-03T08:00:40.505Z,0.14
2023-03-03T08:03:17.617Z,0.15
2023-03-03T08:05:46.990Z,0.15
2023-03-03T08:08:36.720Z,0.30
2023-03-03T08:11:09.645Z,0.24
2023-03-03T08:13:38.737Z,0.21
2023-03-03T08:16:11.039Z,0.25
2023-03-03T08:18:40.352Z,0.18
2023-03-03T08:21:26.188Z,0.26
2023-03-03T08:23:53.708Z,0.17
2023-03-03T08:26:22.544Z,0.11
2023-03-03T08:28:49.859Z,0.08
2023-03-03T08:31:30.882Z,0.16
2023-03-03T08:34:04.557Z,0.20
2023-03-03T08:36:33.050Z,0.21
2023-03-03T08:39:04.180Z,0.31
2023-03-03T08:41:30.577Z,0.32
2023-03-03T08:43:56.992Z,0.30
2023-03-03T08:46:23.527Z,0.33
2023-03-03T08:48:50.024Z,0.39
2023-03-03T08:51:16.777Z,0.38
2023-03-03T08:53:43.340Z,0.42
2023-03-03T08:56:10.384Z,0.45
2023-03-03T08:58:36.915Z,0.46
2023-03-03T09:01:04.382Z,0.54
2023-03-03T09:03:31.314Z,0.66
2023-03-03T09:05:57.754Z,0.69
2023-03-03T09:08:24.211Z,0.58
2023-03-03T09:10:50.786Z,0.59
2023-03-03T09:13:19.569Z,0.62
2023-03-03T09:15:47.038Z,0.58
2023-03-03T09:18:16.705Z,0.54
2023-03-03T09:20:46.352Z,0.60
2023-03-03T09:23:37.113Z,0.54
2023-03-03T09:26:18.592Z,0.65
2023-03-03T09:28:45.271Z,0.73
2023-03-03T09:31:26.175Z,0.92
2023-03-03T09:33:57.499Z,0.85
2023-03-03T09:36:35.357Z,0.85
2023-03-03T09:39:16.266Z,0.86
2023-03-03T09:41:45.437Z,0.89
2023-03-03T09:44:37.967Z,1.00
2023-03-03T09:47:07.346Z,0.90
2023-03-03T09:50:13.384Z,0.91
2023-03-03T09:53:16.902Z,0.99
2023-03-03T09:56:15.639Z,1.07
2023-03-03T09:59:00.747Z,1.05
2023-03-03T10:01:47.144Z,1.01
2023-03-03T10:04:23.115Z,1.02
2023-03-03T10:07:07.178Z,0.99
2023-03-03T10:09:47.471Z,1.09
2023-03-03T10:12:27.316Z,1.12
2023-03-03T10:15:10.166Z,1.19
2023-03-03T10:17:45.332Z,1.28
2023-03-03T10:20:50.628Z,1.34
2023-03-03T10:23:28.017Z,1.54
2023-03-03T10:26:34.841Z,1.33
2023-03-03T10:29:26.269Z,1.50
2023-03-03T10:32:18.969Z,1.49
2023-03-03T10:35:06.033Z,1.63
2023-03-03T10:37:55.528Z,1.59
2023-03-03T10:40:49.940Z,1.60
2023-03-03T10:43:35.269Z,1.65
2023-03-03T10:46:10.920Z,1.72
2023-03-03T10:48:43.430Z,1.77
2023-03-03T10:51:36.761Z,1.96
2023-03-03T10:54:14.501Z,1.92
2023-03-03T10:56:57.664Z,1.83
2023-03-03T10:59:31.445Z,1.89
2023-03-03T11:02:22.707Z,1.93
2023-03-03T11:05:15.426Z,1.94
2023-03-03T11:07:50.128Z,1.95
2023-03-03T11:13:44.604Z,2.09
2023-03-03T11:16:35.075Z,2.32
2023-03-03T11:19:38.381Z,2.32
2023-03-03T11:22:34.353Z,2.30
2023-03-03T11:25:38.452Z,2.39
2023-03-03T11:28:37.482Z,2.51
2023-03-03T11:31:33.816Z,2.35
2023-03-03T11:34:08.914Z,2.40
2023-03-03T11:36:57.988Z,2.30
2023-03-03T11:39:28.806Z,2.51
2023-03-03T11:42:11.700Z,2.49
2023-03-03T11:44:43.962Z,2.53
2023-03-03T11:47:20.553Z,2.54
2023-03-03T11:50:03.588Z,2.56
2023-03-03T11:52:48.817Z,2.58
2023-03-03T11:55:30.459Z,2.63
2023-03-03T11:58:07.926Z,2.62
2023-03-03T12:00:48.451Z,2.72
2023-03-03T12:03:29.069Z,2.66
2023-03-03T12:06:12.700Z,2.51
2023-03-03T12:08:59.878Z,2.59
2023-03-03T12:11:32.645Z,2.57
2023-03-03T12:14:28.783Z,2.76
2023-03-03T12:16:55.120Z,2.68
2023-03-03T12:19:57.218Z,2.89
2023-03-03T12:22:35.854Z,2.88
2023-03-03T12:25:24.301Z,2.83
2023-03-03T12:28:06.413Z,2.83
2023-03-03T12:30:49.750Z,2.82
2023-03-03T12:33:35.967Z,2.72
2023-03-03T12:36:19.743Z,2.94
2023-03-03T12:38:58.215Z,2.91
2023-03-03T12:41:43.656Z,2.78
2023-03-03T12:44:22.874Z,2.88
2023-03-03T12:47:23.273Z,2.74
2023-03-03T12:50:09.347Z,2.75
2023-03-03T12:52:54.788Z,2.81
2023-03-03T12:55:40.040Z,2.96
2023-03-03T12:58:25.338Z,3.01
2023-03-03T13:01:10.941Z,2.98
2023-03-03T13:04:05.539Z,3.08
2023-03-03T13:06:43.867Z,3.19
2023-03-03T13:09:28.651Z,3.11
2023-03-03T13:12:08.925Z,3.02
2023-03-03T13:14:46.880Z,3.09
2023-03-03T13:17:17.926Z,3.16
2023-03-03T13:19:52.526Z,3.00
2023-03-03T13:22:19.033Z,3.03
2023-03-03T13:25:24.430Z,2.83
2023-03-03T13:27:55.312Z,2.92
2023-03-03T13:30:26.051Z,2.64
2023-03-03T13:33:14.972Z,2.74
2023-03-03T13:35:50.126Z,2.85
2023-03-03T13:38:27.989Z,2.84
2023-03-03T13:41:05.219Z,2.75
2023-03-03T13:43:47.300Z,2.82
2023-03-03T13:46:30.125Z,3.14
2023-03-03T13:49:26.736Z,3.13
2023-03-03T13:52:02.392Z,3.11
2023-03-03T13:54:44.664Z,3.00
2023-03-03T13:57:31.720Z,2.89
2023-03-03T14:00:13.714Z,2.87
2023-03-03T14:03:03.962Z,2.81
2023-03-03T14:05:41.455Z,2.89
2023-03-03T14:08:36.041Z,2.93
2023-03-03T14:11:19.288Z,2.76
2023-03-03T14:14:10.784Z,2.76
2023-03-03T14:16:52.248Z,2.76
2023-03-03T14:19:40.232Z,2.81
2023-03-03T14:22:26.256Z,2.81
2023-03-03T14:25:05.408Z,2.82
2023-03-03T14:27:36.491Z,2.92
2023-03-03T14:30:21.965Z,2.84
2023-03-03T14:33:10.249Z,2.81
2023-03-03T14:35:41.086Z,2.73
2023-03-03T14:38:16.739Z,2.81
2023-03-03T14:40:45.974Z,2.79
2023-03-03T14:43:24.850Z,2.90
2023-03-03T14:45:55.171Z,2.81
2023-03-03T14:48:21.751Z,2.84
2023-03-03T14:51:27.280Z,3.09
2023-03-03T14:53:54.160Z,3.06
2023-03-03T14:56:24.877Z,2.97
2023-03-03T14:58:54.296Z,3.01
2023-03-03T15:01:32.943Z,3.02
2023-03-03T15:04:10.439Z,2.85
2023-03-03T15:06:49.143Z,2.98
2023-03-03T15:09:48.326Z,3.03
2023-03-03T15:12:22.884Z,3.07
2023-03-03T15:15:05.614Z,3.16
2023-03-03T15:17:35.840Z,3.14
2023-03-03T15:20:27.298Z,3.16
2023-03-03T15:23:13.751Z,3.23
2023-03-03T15:26:04.934Z,3.25
2023-03-03T15:29:05.114Z,3.06
2023-03-03T15:31:58.710Z,3.14
2023-03-03T15:34:39.931Z,3.08
2023-03-03T15:37:19.051Z,3.17
2023-03-03T15:39:54.988Z,3.25
2023-03-03T15:42:39.253Z,3.18
2023-03-03T15:45:34.076Z,3.11
2023-03-03T15:48:19.986Z,2.92
2023-03-03T15:51:15.509Z,2.88
2023-03-03T15:53:54.288Z,2.87
2023-03-03T15:56:31.462Z,2.83
2023-03-03T15:59:22.739Z,2.87
2023-03-03T16:02:11.072Z,2.76
2023-03-03T16:04:45.837Z,2.69
2023-03-03T16:07:42.628Z,2.63
2023-03-03T16:10:12.509Z,2.64
2023-03-03T16:13:04.506Z,2.64
2023-03-03T16:15:44.394Z,2.52
2023-03-03T16:18:36.517Z,2.51
2023-03-03T16:21:17.739Z,2.40
2023-03-03T16:23:48.424Z,2.39
2023-03-03T16:26:29.881Z,2.34
2023-03-03T16:29:28.289Z,2.29
2023-03-03T16:32:25.713Z,2.22
2023-03-03T16:35:24.398Z,2.21
2023-03-03T16:38:00.131Z,2.15
2023-03-03T16:40:36.075Z,2.17
2023-03-03T16:43:18.771Z,2.12
2023-03-03T16:45:46.375Z,2.15
2023-03-03T16:48:35.299Z,2.20
2023-03-03T16:51:24.654Z,2.23
2023-03-03T16:54:28.004Z,2.18
2023-03-03T16:57:08.330Z,2.08
2023-03-03T17:00:21.120Z,2.18
2023-03-03T17:03:13.759Z,2.12
2023-03-03T17:05:52.212Z,2.18
2023-03-03T17:08:39.685Z,2.07
2023-03-03T17:11:35.222Z,2.10
2023-03-03T17:14:35.890Z,2.26
2023-03-03T17:17:40.749Z,2.21
2023-03-03T17:20:28.754Z,2.18
2023-03-03T17:23:15.812Z,2.16
2023-03-03T17:26:01.006Z,2.16
2023-03-03T17:28:42.320Z,2.16
2023-03-03T17:31:48.082Z,2.29
2023-03-03T17:34:37.740Z,2.27
2023-03-03T17:37:25.734Z,2.31
2023-03-03T17:40:20.276Z,2.34
2023-03-03T17:43:06.675Z,2.33
2023-03-03T17:45:41.148Z,2.41
2023-03-03T17:48:25.761Z,2.45
2023-03-03T17:51:01.607Z,2.33
2023-03-03T17:53:46.146Z,2.44
2023-03-03T17:56:22.677Z,2.33
2023-03-03T17:59:15.406Z,2.33
2023-03-03T18:02:24.913Z,2.37
2023-03-03T18:05:12.959Z,2.46
2023-03-03T18:07:54.623Z,2.51
2023-03-03T18:10:48.562Z,2.40
2023-03-03T18:13:30.133Z,2.31
2023-03-03T18:16:21.653Z,2.35
2023-03-03T18:19:08.083Z,2.62
2023-03-03T18:21:44.101Z,2.68
2023-03-03T18:24:24.962Z,2.47
2023-03-03T18:26:55.104Z,2.39
2023-03-03T18:29:27.970Z,2.35
2023-03-03T18:31:57.134Z,2.33
2023-03-03T18:34:32.021Z,2.39
2023-03-03T18:37:21.707Z,2.40
2023-03-03T18:40:09.517Z,2.41
2023-03-03T18:42:45.275Z,2.46
2023-03-03T18:45:19.261Z,2.60
2023-03-03T18:48:01.047Z,2.46
2023-03-03T18:50:35.377Z,2.49
2023-03-03T18:53:10.622Z,2.51
2023-03-03T18:55:43.355Z,2.53
2023-03-03T18:58:16.032Z,2.50
2023-03-03T19:00:54.882Z,2.62
2023-03-03T19:03:38.224Z,2.51
2023-03-03T19:06:08.552Z,2.55
2023-03-03T19:08:46.213Z,2.53
2023-03-03T19:11:50.407Z,2.53
2023-03-03T19:14:16.735Z,2.54
2023-03-03T19:16:44.186Z,2.43
2023-03-03T19:19:17.724Z,2.40
2023-03-03T19:21:51.154Z,2.55
2023-03-03T19:24:23.337Z,2.49
2023-03-03T19:27:05.252Z,2.47
2023-03-03T19:29:46.777Z,2.60
2023-03-03T19:32:42.755Z,2.69
2023-03-03T19:35:20.368Z,2.62
2023-03-03T19:38:15.959Z,2.56
2023-03-03T19:40:58.206Z,2.57
2023-03-03T19:44:07.993Z,2.53
2023-03-03T19:49:21.963Z,2.71
2023-03-03T19:52:07.767Z,2.75
2023-03-03T19:54:45.039Z,2.67
2023-03-03T19:57:25.011Z,2.62
2023-03-03T20:00:05.463Z,2.57
2023-03-03T20:02:53.428Z,2.58
2023-03-03T20:05:42.835Z,2.60
2023-03-03T20:08:25.869Z,2.70
2023-03-03T20:11:02.713Z,2.74
2023-03-03T20:14:00.266Z,2.73
2023-03-03T20:16:29.706Z,2.70
2023-03-03T20:19:10.136Z,2.89
2023-03-03T20:22:06.812Z,2.78
2023-03-03T20:24:58.565Z,2.91
2023-03-03T20:27:47.529Z,2.97
2023-03-03T20:30:20.197Z,3.08
2023-03-03T20:33:04.536Z,3.19
2023-03-03T20:35:42.637Z,3.42
2023-03-03T20:38:17.841Z,3.34
2023-03-03T20:40:50.632Z,3.39
2023-03-03T20:43:20.216Z,3.45
2023-03-03T20:46:00.267Z,3.47
2023-03-03T20:48:50.327Z,3.66
2023-03-03T20:51:40.965Z,3.65
2023-03-03T20:54:33.487Z,3.69
2023-03-03T20:57:12.472Z,3.63
2023-03-03T21:00:08.415Z,3.51
2023-03-03T21:02:46.721Z,3.66
2023-03-03T21:05:19.675Z,3.48
2023-03-03T21:07:56.857Z,3.53
2023-03-03T21:10:26.859Z,3.64
2023-03-03T21:12:55.289Z,3.60
2023-03-03T21:15:25.954Z,3.55
2023-03-03T21:17:54.743Z,3.49
2023-03-03T21:20:33.150Z,3.47
2023-03-03T21:23:01.647Z,3.33
2023-03-03T21:25:40.399Z,3.36
2023-03-03T21:28:18.161Z,3.37
2023-03-03T21:31:17.144Z,3.49
2023-03-03T21:33:57.050Z,3.44
2023-03-03T21:36:32.338Z,3.44
2023-03-03T21:39:02.165Z,3.38
2023-03-03T21:41:56.432Z,3.33
2023-03-03T21:44:35.150Z,3.31
2023-03-03T21:47:05.506Z,3.41
2023-03-03T21:49:31.940Z,3.36
2023-03-03T21:51:58.464Z,3.33
2023-03-03T21:54:25.473Z,3.44
2023-03-03T21:56:52.441Z,3.37
2023-03-03T21:59:19.215Z,3.38
2023-03-03T22:01:46.219Z,3.44
2023-03-03T22:04:12.902Z,3.47
2023-03-03T22:06:39.788Z,3.41
2023-03-03T22:09:07.339Z,3.40
2023-03-03T22:11:34.105Z,3.37
2023-03-03T22:14:00.784Z,3.44
2023-03-03T22:16:27.412Z,3.33
2023-03-03T22:18:53.803Z,3.37
2023-03-03T22:21:20.467Z,3.33
2023-03-03T22:23:46.939Z,3.45
2023-03-03T22:26:13.643Z,3.53
2023-03-03T22:28:41.461Z,3.55
2023-03-03T22:31:09.151Z,3.55
2023-03-03T22:33:35.687Z,3.53
2023-03-03T22:36:02.363Z,3.48
2023-03-03T22:38:28.757Z,3.49
2023-03-03T22:40:55.680Z,3.50
2023-03-03T22:43:22.465Z,3.33
2023-03-03T22:45:50.643Z,3.47
2023-03-03T22:48:17.152Z,3.44
2023-03-03T22:50:45.430Z,3.25
2023-03-03T22:53:11.933Z,3.30
2023-03-03T22:55:38.405Z,3.36
2023-03-03T22:58:05.712Z,3.20
2023-03-03T23:00:34.849Z,3.19
2023-03-03T23:03:01.487Z,3.25
2023-03-03T23:05:30.904Z,3.18
2023-03-03T23:07:57.317Z,3.18
2023-03-03T23:10:23.729Z,3.12
2023-03-03T23:12:50.410Z,3.32
2023-03-03T23:15:16.943Z,3.30
2023-03-03T23:17:44.971Z,3.26
2023-03-03T23:20:21.105Z,3.23
2023-03-03T23:22:47.995Z,3.09
2023-03-03T23:25:15.651Z,3.21
2023-03-03T23:27:43.704Z,3.26
2023-03-03T23:30:12.767Z,3.15
2023-03-03T23:32:39.397Z,3.22
2023-03-03T23:35:06.734Z,3.33
2023-03-03T23:37:33.231Z,3.39
2023-03-03T23:40:00.193Z,3.30
2023-03-03T23:42:30.786Z,3.39
2023-03-03T23:44:57.408Z,3.18
2023-03-03T23:47:24.054Z,3.38
2023-03-03T23:49:50.530Z,3.45
2023-03-03T23:52:18.361Z,3.41
2023-03-03T23:54:45.783Z,3.46
2023-03-03T23:57:12.380Z,3.34
2023-03-03T23:59:38.997Z,3.33
